Schedule Details


Flight Number: CTN366
Departure: Franjo Tudman (LDZA) at 22:10
Arrival: Alexander The Great (LWSK) at 23:25
Route: TEBLI UL187 IDASI UM867 KOGAT Y550 BUREK P92 SKJ

Weather Information
LDZA 251800Z 02004KT CAVOK 25/19 Q1018 NOSIG
LWSK 251800Z 03006KT 9999 FEW100 31/12 Q1015 NOSIG
Schedule Frequency

Route Map